sensor_id;sensor_type;location;lat;lon;timestamp;pressure;altitude;pressure_sealevel;temperature;humidity
61478;BME280;47345;52.334;10.392;2023-11-18T00:01:36;101650.49;;;3.57;87.83
61478;BME280;47345;52.334;10.392;2023-11-18T00:04:07;101652.19;;;3.46;87.38
61478;BME280;47345;52.334;10.392;2023-11-18T00:06:46;101655.52;;;3.36;87.47
61478;BME280;47345;52.334;10.392;2023-11-18T00:09:16;101657.00;;;3.28;87.53
61478;BME280;47345;52.334;10.392;2023-11-18T00:11:47;101654.95;;;3.21;87.35
61478;BME280;47345;52.334;10.392;2023-11-18T00:14:18;101656.09;;;3.16;87.67
61478;BME280;47345;52.334;10.392;2023-11-18T00:16:50;101660.24;;;3.16;87.66
61478;BME280;47345;52.334;10.392;2023-11-18T00:19:21;101663.33;;;3.20;88.36
61478;BME280;47345;52.334;10.392;2023-11-18T00:21:51;101662.72;;;3.27;88.90
61478;BME280;47345;52.334;10.392;2023-11-18T00:24:23;101665.27;;;3.35;89.00
61478;BME280;47345;52.334;10.392;2023-11-18T00:26:54;101663.55;;;3.42;89.04
61478;BME280;47345;52.334;10.392;2023-11-18T00:29:24;101667.36;;;3.47;89.03
61478;BME280;47345;52.334;10.392;2023-11-18T00:31:55;101667.20;;;3.51;88.77
61478;BME280;47345;52.334;10.392;2023-11-18T00:34:26;101673.84;;;3.52;88.67
61478;BME280;47345;52.334;10.392;2023-11-18T00:36:58;101669.22;;;3.51;88.40
61478;BME280;47345;52.334;10.392;2023-11-18T00:39:29;101669.89;;;3.50;88.37
61478;BME280;47345;52.334;10.392;2023-11-18T00:42:00;101669.86;;;3.48;88.23
61478;BME280;47345;52.334;10.392;2023-11-18T00:44:31;101667.27;;;3.45;88.20
61478;BME280;47345;52.334;10.392;2023-11-18T00:47:01;101669.00;;;3.41;88.27
61478;BME280;47345;52.334;10.392;2023-11-18T00:49:32;101674.14;;;3.36;88.19
61478;BME280;47345;52.334;10.392;2023-11-18T00:52:05;101676.09;;;3.31;88.47
61478;BME280;47345;52.334;10.392;2023-11-18T00:54:36;101678.52;;;3.23;88.26
61478;BME280;47345;52.334;10.392;2023-11-18T00:57:07;101677.24;;;3.13;87.92
61478;BME280;47345;52.334;10.392;2023-11-18T00:59:38;101682.28;;;3.05;87.40
61478;BME280;47345;52.334;10.392;2023-11-18T01:02:12;101686.36;;;2.97;87.78
61478;BME280;47345;52.334;10.392;2023-11-18T01:04:42;101686.14;;;2.89;87.94
61478;BME280;47345;52.334;10.392;2023-11-18T01:07:15;101682.30;;;2.84;87.98
61478;BME280;47345;52.334;10.392;2023-11-18T01:09:46;101680.67;;;2.79;88.33
61478;BME280;47345;52.334;10.392;2023-11-18T01:12:16;101677.91;;;2.78;88.42
61478;BME280;47345;52.334;10.392;2023-11-18T01:14:47;101677.22;;;2.76;88.62
61478;BME280;47345;52.334;10.392;2023-11-18T01:17:17;101681.56;;;2.72;88.32
61478;BME280;47345;52.334;10.392;2023-11-18T01:19:51;101680.42;;;2.66;88.17
61478;BME280;47345;52.334;10.392;2023-11-18T01:22:22;101684.41;;;2.59;87.93
61478;BME280;47345;52.334;10.392;2023-11-18T01:24:53;101696.20;;;2.56;88.45
61478;BME280;47345;52.334;10.392;2023-11-18T01:27:24;101695.29;;;2.52;88.48
61478;BME280;47345;52.334;10.392;2023-11-18T01:29:54;101693.94;;;2.46;88.07
61478;BME280;47345;52.334;10.392;2023-11-18T01:32:25;101691.50;;;2.43;88.33
61478;BME280;47345;52.334;10.392;2023-11-18T01:34:56;101698.89;;;2.41;88.26
61478;BME280;47345;52.334;10.392;2023-11-18T01:37:27;101705.85;;;2.42;88.60
61478;BME280;47345;52.334;10.392;2023-11-18T01:39:57;101706.52;;;2.44;89.10
61478;BME280;47345;52.334;10.392;2023-11-18T01:42:28;101711.71;;;2.49;89.24
61478;BME280;47345;52.334;10.392;2023-11-18T01:45:00;101719.14;;;2.55;89.00
61478;BME280;47345;52.334;10.392;2023-11-18T01:47:34;101714.38;;;2.60;89.00
61478;BME280;47345;52.334;10.392;2023-11-18T01:50:07;101720.37;;;2.68;89.37
61478;BME280;47345;52.334;10.392;2023-11-18T01:52:39;101728.45;;;2.77;89.15
61478;BME280;47345;52.334;10.392;2023-11-18T01:55:15;101729.77;;;2.87;89.43
61478;BME280;47345;52.334;10.392;2023-11-18T01:57:46;101732.98;;;2.96;89.30
61478;BME280;47345;52.334;10.392;2023-11-18T02:00:18;101730.78;;;3.03;89.17
61478;BME280;47345;52.334;10.392;2023-11-18T02:02:49;101728.51;;;3.08;88.82
61478;BME280;47345;52.334;10.392;2023-11-18T02:05:20;101730.92;;;3.14;89.28
61478;BME280;47345;52.334;10.392;2023-11-18T02:07:51;101733.33;;;3.17;88.59
61478;BME280;47345;52.334;10.392;2023-11-18T02:10:22;101726.40;;;3.20;88.59
61478;BME280;47345;52.334;10.392;2023-11-18T02:12:57;101726.17;;;3.22;88.56
61478;BME280;47345;52.334;10.392;2023-11-18T02:15:31;101726.67;;;3.29;88.97
61478;BME280;47345;52.334;10.392;2023-11-18T02:18:07;101726.64;;;3.36;89.14
61478;BME280;47345;52.334;10.392;2023-11-18T02:20:40;101725.45;;;3.41;89.37
61478;BME280;47345;52.334;10.392;2023-11-18T02:23:11;101726.02;;;3.47;89.32
61478;BME280;47345;52.334;10.392;2023-11-18T02:25:45;101724.40;;;3.51;89.11
61478;BME280;47345;52.334;10.392;2023-11-18T02:28:17;101724.05;;;3.55;88.85
61478;BME280;47345;52.334;10.392;2023-11-18T02:30:48;101726.38;;;3.60;89.13
61478;BME280;47345;52.334;10.392;2023-11-18T02:33:24;101728.52;;;3.64;89.27
61478;BME280;47345;52.334;10.392;2023-11-18T02:36:02;101734.72;;;3.71;89.55
61478;BME280;47345;52.334;10.392;2023-11-18T02:38:39;101737.13;;;3.76;89.49
61478;BME280;47345;52.334;10.392;2023-11-18T02:41:16;101738.79;;;3.82;89.43
61478;BME280;47345;52.334;10.392;2023-11-18T02:43:48;101747.13;;;3.86;88.93
61478;BME280;47345;52.334;10.392;2023-11-18T02:46:20;101754.21;;;3.83;88.39
61478;BME280;47345;52.334;10.392;2023-11-18T02:48:57;101755.73;;;3.80;88.26
61478;BME280;47345;52.334;10.392;2023-11-18T02:51:28;101751.09;;;3.79;88.46
61478;BME280;47345;52.334;10.392;2023-11-18T02:53:59;101747.98;;;3.80;88.72
61478;BME280;47345;52.334;10.392;2023-11-18T02:56:29;101748.84;;;3.80;88.67
61478;BME280;47345;52.334;10.392;2023-11-18T02:59:00;101747.23;;;3.81;88.59
61478;BME280;47345;52.334;10.392;2023-11-18T03:01:31;101750.10;;;3.82;88.55
61478;BME280;47345;52.334;10.392;2023-11-18T03:04:02;101747.35;;;3.85;88.74
61478;BME280;47345;52.334;10.392;2023-11-18T03:06:35;101753.34;;;3.87;88.64
61478;BME280;47345;52.334;10.392;2023-11-18T03:09:06;101750.27;;;3.89;89.05
61478;BME280;47345;52.334;10.392;2023-11-18T03:11:38;101750.00;;;3.94;89.29
61478;BME280;47345;52.334;10.392;2023-11-18T03:14:09;101748.87;;;3.99;89.31
61478;BME280;47345;52.334;10.392;2023-11-18T03:16:40;101739.30;;;4.03;89.40
61478;BME280;47345;52.334;10.392;2023-11-18T03:19:10;101739.30;;;4.06;89.52
61478;BME280;47345;52.334;10.392;2023-11-18T03:21:43;101746.70;;;4.09;89.14
61478;BME280;47345;52.334;10.392;2023-11-18T03:24:14;101744.39;;;4.10;89.29
61478;BME280;47345;52.334;10.392;2023-11-18T03:26:46;101742.23;;;4.14;89.78
61478;BME280;47345;52.334;10.392;2023-11-18T03:29:17;101741.40;;;4.18;89.60
61478;BME280;47345;52.334;10.392;2023-11-18T03:31:48;101745.29;;;4.20;89.53
61478;BME280;47345;52.334;10.392;2023-11-18T03:34:19;101743.78;;;4.23;89.56
61478;BME280;47345;52.334;10.392;2023-11-18T03:36:50;101740.02;;;4.27;89.88
61478;BME280;47345;52.334;10.392;2023-11-18T03:39:21;101743.18;;;4.30;89.66
61478;BME280;47345;52.334;10.392;2023-11-18T03:41:52;101741.55;;;4.29;89.30
61478;BME280;47345;52.334;10.392;2023-11-18T03:44:23;101740.64;;;4.29;89.21
61478;BME280;47345;52.334;10.392;2023-11-18T03:46:54;101739.56;;;4.32;89.66
61478;BME280;47345;52.334;10.392;2023-11-18T03:49:25;101738.02;;;4.35;89.61
61478;BME280;47345;52.334;10.392;2023-11-18T03:51:55;101740.05;;;4.36;89.33
61478;BME280;47345;52.334;10.392;2023-11-18T03:54:26;101742.93;;;4.34;88.89
61478;BME280;47345;52.334;10.392;2023-11-18T03:56:57;101741.44;;;4.33;88.97
61478;BME280;47345;52.334;10.392;2023-11-18T03:59:28;101743.56;;;4.31;88.95
61478;BME280;47345;52.334;10.392;2023-11-18T04:01:59;101741.20;;;4.32;88.91
61478;BME280;47345;52.334;10.392;2023-11-18T04:04:30;101739.80;;;4.31;89.04
61478;BME280;47345;52.334;10.392;2023-11-18T04:07:01;101742.33;;;4.31;89.02
61478;BME280;47345;52.334;10.392;2023-11-18T04:09:32;101737.62;;;4.31;89.16
61478;BME280;47345;52.334;10.392;2023-11-18T04:12:02;101736.27;;;4.32;89.32
61478;BME280;47345;52.334;10.392;2023-11-18T04:14:34;101741.36;;;4.32;89.17
61478;BME280;47345;52.334;10.392;2023-11-18T04:17:05;101741.04;;;4.29;89.11
61478;BME280;47345;52.334;10.392;2023-11-18T04:19:37;101739.98;;;4.27;89.10
61478;BME280;47345;52.334;10.392;2023-11-18T04:22:08;101740.54;;;4.25;89.08
61478;BME280;47345;52.334;10.392;2023-11-18T04:24:39;101738.29;;;4.22;89.39
61478;BME280;47345;52.334;10.392;2023-11-18T04:27:09;101739.55;;;4.18;89.22
61478;BME280;47345;52.334;10.392;2023-11-18T04:29:40;101735.02;;;4.12;89.07
61478;BME280;47345;52.334;10.392;2023-11-18T04:32:11;101731.53;;;4.03;88.74
61478;BME280;47345;52.334;10.392;2023-11-18T04:34:43;101733.33;;;3.93;88.67
61478;BME280;47345;52.334;10.392;2023-11-18T04:37:14;101734.36;;;3.83;88.70
61478;BME280;47345;52.334;10.392;2023-11-18T04:39:45;101734.85;;;3.76;88.58
61478;BME280;47345;52.334;10.392;2023-11-18T04:42:15;101739.23;;;3.69;88.99
61478;BME280;47345;52.334;10.392;2023-11-18T04:44:46;101739.52;;;3.64;89.28
61478;BME280;47345;52.334;10.392;2023-11-18T04:47:17;101736.94;;;3.58;89.13
61478;BME280;47345;52.334;10.392;2023-11-18T04:49:48;101737.77;;;3.51;88.96
61478;BME280;47345;52.334;10.392;2023-11-18T04:52:19;101733.89;;;3.44;89.04
61478;BME280;47345;52.334;10.392;2023-11-18T04:54:50;101733.95;;;3.39;88.89
61478;BME280;47345;52.334;10.392;2023-11-18T04:57:21;101741.49;;;3.33;88.95
61478;BME280;47345;52.334;10.392;2023-11-18T04:59:51;101736.91;;;3.28;88.74
61478;BME280;47345;52.334;10.392;2023-11-18T05:02:23;101732.07;;;3.23;88.88
61478;BME280;47345;52.334;10.392;2023-11-18T05:04:53;101721.27;;;3.19;88.91
61478;BME280;47345;52.334;10.392;2023-11-18T05:07:24;101716.98;;;3.14;88.87
61478;BME280;47345;52.334;10.392;2023-11-18T05:09:57;101714.43;;;3.11;88.65
61478;BME280;47345;52.334;10.392;2023-11-18T05:12:29;101715.10;;;3.07;89.09
61478;BME280;47345;52.334;10.392;2023-11-18T05:15:00;101719.31;;;3.06;89.20
61478;BME280;47345;52.334;10.392;2023-11-18T05:17:32;101724.95;;;3.03;88.84
61478;BME280;47345;52.334;10.392;2023-11-18T05:20:06;101720.46;;;3.01;88.90
61478;BME280;47345;52.334;10.392;2023-11-18T05:22:38;101716.40;;;3.00;88.77
61478;BME280;47345;52.334;10.392;2023-11-18T05:25:09;101709.11;;;3.01;89.31
61478;BME280;47345;52.334;10.392;2023-11-18T05:27:41;101706.38;;;3.04;89.61
61478;BME280;47345;52.334;10.392;2023-11-18T05:30:14;101704.30;;;3.04;89.19
61478;BME280;47345;52.334;10.392;2023-11-18T05:32:44;101697.31;;;3.02;88.59
61478;BME280;47345;52.334;10.392;2023-11-18T05:35:15;101701.77;;;3.03;88.83
61478;BME280;47345;52.334;10.392;2023-11-18T05:37:46;101699.11;;;3.04;88.97
61478;BME280;47345;52.334;10.392;2023-11-18T05:40:17;101693.75;;;3.08;89.20
61478;BME280;47345;52.334;10.392;2023-11-18T05:42:49;101693.42;;;3.09;89.27
61478;BME280;47345;52.334;10.392;2023-11-18T05:45:22;101705.17;;;3.14;89.37
61478;BME280;47345;52.334;10.392;2023-11-18T05:48:01;101698.16;;;3.17;89.63
61478;BME280;47345;52.334;10.392;2023-11-18T05:50:32;101697.34;;;3.22;90.05
61478;BME280;47345;52.334;10.392;2023-11-18T05:53:04;101692.54;;;3.28;89.92
61478;BME280;47345;52.334;10.392;2023-11-18T05:55:34;101691.05;;;3.33;90.10
61478;BME280;47345;52.334;10.392;2023-11-18T05:58:05;101697.54;;;3.34;89.82
61478;BME280;47345;52.334;10.392;2023-11-18T06:00:38;101703.30;;;3.35;89.72
61478;BME280;47345;52.334;10.392;2023-11-18T06:03:10;101704.71;;;3.35;89.79
61478;BME280;47345;52.334;10.392;2023-11-18T06:05:41;101701.39;;;3.36;89.97
61478;BME280;47345;52.334;10.392;2023-11-18T06:08:13;101700.14;;;3.40;90.59
61478;BME280;47345;52.334;10.392;2023-11-18T06:10:44;101691.23;;;3.43;90.33
61478;BME280;47345;52.334;10.392;2023-11-18T06:13:15;101686.27;;;3.46;90.39
61478;BME280;47345;52.334;10.392;2023-11-18T06:15:46;101678.86;;;3.48;89.96
61478;BME280;47345;52.334;10.392;2023-11-18T06:18:17;101680.26;;;3.48;89.86
61478;BME280;47345;52.334;10.392;2023-11-18T06:20:49;101682.81;;;3.46;89.65
61478;BME280;47345;52.334;10.392;2023-11-18T06:23:19;101688.05;;;3.42;89.36
61478;BME280;47345;52.334;10.392;2023-11-18T06:25:50;101686.19;;;3.36;89.12
61478;BME280;47345;52.334;10.392;2023-11-18T06:28:21;101685.72;;;3.32;89.58
61478;BME280;47345;52.334;10.392;2023-11-18T06:30:52;101686.02;;;3.28;89.44
61478;BME280;47345;52.334;10.392;2023-11-18T06:33:22;101686.35;;;3.27;89.69
61478;BME280;47345;52.334;10.392;2023-11-18T06:35:56;101688.20;;;3.24;89.34
61478;BME280;47345;52.334;10.392;2023-11-18T06:38:26;101687.57;;;3.19;88.92
61478;BME280;47345;52.334;10.392;2023-11-18T06:40:59;101693.69;;;3.15;88.91
61478;BME280;47345;52.334;10.392;2023-11-18T06:43:36;101700.86;;;3.11;88.75
61478;BME280;47345;52.334;10.392;2023-11-18T06:46:22;101697.79;;;3.07;88.68
61478;BME280;47345;52.334;10.392;2023-11-18T06:48:55;101699.09;;;3.04;89.07
61478;BME280;47345;52.334;10.392;2023-11-18T06:51:27;101695.11;;;3.05;89.02
61478;BME280;47345;52.334;10.392;2023-11-18T06:53:58;101698.58;;;3.04;89.16
61478;BME280;47345;52.334;10.392;2023-11-18T06:56:30;101698.77;;;3.02;89.03
61478;BME280;47345;52.334;10.392;2023-11-18T06:59:00;101701.09;;;3.00;89.24
61478;BME280;47345;52.334;10.392;2023-11-18T07:01:31;101706.55;;;2.99;89.38
61478;BME280;47345;52.334;10.392;2023-11-18T07:04:03;101714.59;;;2.98;89.36
61478;BME280;47345;52.334;10.392;2023-11-18T07:06:38;101720.00;;;2.96;89.14
61478;BME280;47345;52.334;10.392;2023-11-18T07:09:09;101729.03;;;2.91;88.64
61478;BME280;47345;52.334;10.392;2023-11-18T07:11:44;101731.30;;;2.86;88.55
61478;BME280;47345;52.334;10.392;2023-11-18T07:14:16;101735.31;;;2.83;88.76
61478;BME280;47345;52.334;10.392;2023-11-18T07:16:47;101727.25;;;2.85;89.38
61478;BME280;47345;52.334;10.392;2023-11-18T07:19:18;101724.45;;;2.88;89.55
61478;BME280;47345;52.334;10.392;2023-11-18T07:21:51;101725.23;;;2.90;89.33
61478;BME280;47345;52.334;10.392;2023-11-18T07:24:21;101723.60;;;2.92;89.07
61478;BME280;47345;52.334;10.392;2023-11-18T07:26:52;101724.59;;;2.92;88.75
61478;BME280;47345;52.334;10.392;2023-11-18T07:29:23;101725.80;;;2.93;88.47
61478;BME280;47345;52.334;10.392;2023-11-18T07:31:54;101729.22;;;2.98;88.45
61478;BME280;47345;52.334;10.392;2023-11-18T07:34:25;101734.83;;;3.04;88.41
61478;BME280;47345;52.334;10.392;2023-11-18T07:36:55;101734.95;;;3.11;88.80
61478;BME280;47345;52.334;10.392;2023-11-18T07:39:26;101732.42;;;3.21;89.15
61478;BME280;47345;52.334;10.392;2023-11-18T07:42:14;101732.69;;;3.32;88.90
61478;BME280;47345;52.334;10.392;2023-11-18T07:44:47;101727.58;;;3.42;88.75
61478;BME280;47345;52.334;10.392;2023-11-18T07:47:18;101724.54;;;3.54;89.28
61478;BME280;47345;52.334;10.392;2023-11-18T07:49:51;101727.85;;;3.65;89.02
61478;BME280;47345;52.334;10.392;2023-11-18T07:52:21;101734.84;;;3.79;89.22
61478;BME280;47345;52.334;10.392;2023-11-18T07:54:53;101738.73;;;3.93;89.37
61478;BME280;47345;52.334;10.392;2023-11-18T07:57:23;101741.60;;;4.06;89.40
61478;BME280;47345;52.334;10.392;2023-11-18T07:59:55;101748.46;;;4.17;89.26
61478;BME280;47345;52.334;10.392;2023-11-18T08:02:27;101752.48;;;4.31;89.38
61478;BME280;47345;52.334;10.392;2023-11-18T08:04:58;101748.81;;;4.41;89.38
61478;BME280;47345;52.334;10.392;2023-11-18T08:07:29;101748.39;;;4.52;89.40
61478;BME280;47345;52.334;10.392;2023-11-18T08:10:00;101749.92;;;4.62;89.21
61478;BME280;47345;52.334;10.392;2023-11-18T08:12:34;101747.04;;;4.72;89.22
61478;BME280;47345;52.334;10.392;2023-11-18T08:15:07;101750.05;;;4.79;88.65
61478;BME280;47345;52.334;10.392;2023-11-18T08:17:38;101752.92;;;4.85;88.69
61478;BME280;47345;52.334;10.392;2023-11-18T08:20:10;101747.81;;;4.91;88.73
61478;BME280;47345;52.334;10.392;2023-11-18T08:22:44;101748.80;;;5.00;88.76
61478;BME280;47345;52.334;10.392;2023-11-18T08:25:15;101750.55;;;5.06;88.71
61478;BME280;47345;52.334;10.392;2023-11-18T08:27:46;101752.52;;;5.16;88.70
61478;BME280;47345;52.334;10.392;2023-11-18T08:30:17;101748.20;;;5.23;88.43
61478;BME280;47345;52.334;10.392;2023-11-18T08:32:50;101745.02;;;5.30;88.11
61478;BME280;47345;52.334;10.392;2023-11-18T08:35:20;101745.52;;;5.34;88.21
61478;BME280;47345;52.334;10.392;2023-11-18T08:37:51;101743.67;;;5.40;88.10
61478;BME280;47345;52.334;10.392;2023-11-18T08:40:22;101733.54;;;5.48;88.20
61478;BME280;47345;52.334;10.392;2023-11-18T08:42:54;101731.95;;;5.59;88.22
61478;BME280;47345;52.334;10.392;2023-11-18T08:45:27;101725.81;;;5.70;88.35
61478;BME280;47345;52.334;10.392;2023-11-18T08:48:00;101722.20;;;5.85;88.30
61478;BME280;47345;52.334;10.392;2023-11-18T08:50:35;101717.11;;;5.96;88.18
61478;BME280;47345;52.334;10.392;2023-11-18T08:53:09;101714.27;;;6.05;88.22
61478;BME280;47345;52.334;10.392;2023-11-18T08:55:41;101711.34;;;6.12;88.14
61478;BME280;47345;52.334;10.392;2023-11-18T08:58:21;101709.61;;;6.19;87.95
61478;BME280;47345;52.334;10.392;2023-11-18T09:00:58;101708.16;;;6.25;87.81
61478;BME280;47345;52.334;10.392;2023-11-18T09:03:35;101705.16;;;6.29;88.02
61478;BME280;47345;52.334;10.392;2023-11-18T09:06:12;101703.18;;;6.33;87.98
61478;BME280;47345;52.334;10.392;2023-11-18T09:08:49;101706.20;;;6.37;88.12
61478;BME280;47345;52.334;10.392;2023-11-18T09:11:23;101711.90;;;6.40;87.77
61478;BME280;47345;52.334;10.392;2023-11-18T09:13:57;101722.38;;;6.42;87.80
61478;BME280;47345;52.334;10.392;2023-11-18T09:16:30;101722.89;;;6.44;87.76
61478;BME280;47345;52.334;10.392;2023-11-18T09:19:02;101728.29;;;6.44;87.72
61478;BME280;47345;52.334;10.392;2023-11-18T09:21:35;101729.02;;;6.47;87.72
61478;BME280;47345;52.334;10.392;2023-11-18T09:24:07;101723.21;;;6.51;87.57
61478;BME280;47345;52.334;10.392;2023-11-18T09:26:42;101719.41;;;6.55;87.21
61478;BME280;47345;52.334;10.392;2023-11-18T09:29:17;101712.37;;;6.62;87.27
61478;BME280;47345;52.334;10.392;2023-11-18T09:31:49;101710.30;;;6.71;87.28
61478;BME280;47345;52.334;10.392;2023-11-18T09:34:22;101709.64;;;6.82;87.28
61478;BME280;47345;52.334;10.392;2023-11-18T09:36:56;101706.80;;;6.91;86.97
61478;BME280;47345;52.334;10.392;2023-11-18T09:39:28;101703.75;;;6.98;86.82
61478;BME280;47345;52.334;10.392;2023-11-18T09:42:08;101707.16;;;7.05;86.52
61478;BME280;47345;52.334;10.392;2023-11-18T09:44:39;101703.04;;;7.08;86.23
61478;BME280;47345;52.334;10.392;2023-11-18T09:47:10;101701.98;;;7.10;86.16
61478;BME280;47345;52.334;10.392;2023-11-18T09:49:46;101697.84;;;7.13;86.18
61478;BME280;47345;52.334;10.392;2023-11-18T09:52:20;101697.84;;;7.15;85.96
61478;BME280;47345;52.334;10.392;2023-11-18T09:55:02;101705.11;;;7.18;85.85
61478;BME280;47345;52.334;10.392;2023-11-18T09:57:35;101701.73;;;7.20;85.57
61478;BME280;47345;52.334;10.392;2023-11-18T10:00:14;101695.08;;;7.19;85.32
61478;BME280;47345;52.334;10.392;2023-11-18T10:02:51;101695.31;;;7.20;85.34
61478;BME280;47345;52.334;10.392;2023-11-18T10:05:22;101696.06;;;7.23;85.40
61478;BME280;47345;52.334;10.392;2023-11-18T10:07:57;101697.30;;;7.27;85.16
61478;BME280;47345;52.334;10.392;2023-11-18T10:10:29;101696.70;;;7.30;84.85
61478;BME280;47345;52.334;10.392;2023-11-18T10:13:06;101701.06;;;7.30;84.78
61478;BME280;47345;52.334;10.392;2023-11-18T10:15:52;101704.13;;;7.30;84.56
61478;BME280;47345;52.334;10.392;2023-11-18T10:18:24;101697.90;;;7.33;84.64
61478;BME280;47345;52.334;10.392;2023-11-18T10:20:57;101692.56;;;7.41;84.72
61478;BME280;47345;52.334;10.392;2023-11-18T10:23:29;101683.23;;;7.49;84.72
61478;BME280;47345;52.334;10.392;2023-11-18T10:26:03;101674.76;;;7.55;84.34
61478;BME280;47345;52.334;10.392;2023-11-18T10:28:36;101668.79;;;7.60;84.24
61478;BME280;47345;52.334;10.392;2023-11-18T10:31:08;101660.39;;;7.64;83.95
61478;BME280;47345;52.334;10.392;2023-11-18T10:33:41;101658.88;;;7.66;83.84
61478;BME280;47345;52.334;10.392;2023-11-18T10:36:20;101657.20;;;7.68;83.23
61478;BME280;47345;52.334;10.392;2023-11-18T10:38:53;101646.93;;;7.71;82.95
61478;BME280;47345;52.334;10.392;2023-11-18T10:41:25;101643.91;;;7.76;83.15
61478;BME280;47345;52.334;10.392;2023-11-18T10:44:10;101644.71;;;7.81;83.15
61478;BME280;47345;52.334;10.392;2023-11-18T10:46:52;101641.39;;;7.91;82.82
61478;BME280;47345;52.334;10.392;2023-11-18T10:49:23;101640.60;;;7.99;82.51
61478;BME280;47345;52.334;10.392;2023-11-18T10:51:54;101637.05;;;8.09;82.35
61478;BME280;47345;52.334;10.392;2023-11-18T10:54:25;101629.39;;;8.17;81.71
61478;BME280;47345;52.334;10.392;2023-11-18T10:56:56;101624.60;;;8.25;81.33
61478;BME280;47345;52.334;10.392;2023-11-18T10:59:37;101629.33;;;8.28;80.66
61478;BME280;47345;52.334;10.392;2023-11-18T11:02:31;101625.72;;;8.30;80.26
61478;BME280;47345;52.334;10.392;2023-11-18T11:05:09;101617.20;;;8.31;80.17
61478;BME280;47345;52.334;10.392;2023-11-18T11:07:50;101614.35;;;8.30;79.89
61478;BME280;47345;52.334;10.392;2023-11-18T11:10:21;101610.45;;;8.31;79.92
61478;BME280;47345;52.334;10.392;2023-11-18T11:13:01;101604.11;;;8.31;79.72
61478;BME280;47345;52.334;10.392;2023-11-18T11:15:34;101602.05;;;8.30;79.31
61478;BME280;47345;52.334;10.392;2023-11-18T11:18:21;101601.11;;;8.28;78.75
61478;BME280;47345;52.334;10.392;2023-11-18T11:21:10;101594.84;;;8.24;78.78
61478;BME280;47345;52.334;10.392;2023-11-18T11:23:53;101586.27;;;8.23;78.84
61478;BME280;47345;52.334;10.392;2023-11-18T11:26:44;101575.70;;;8.23;78.68
61478;BME280;47345;52.334;10.392;2023-11-18T11:29:45;101572.90;;;8.27;79.15
61478;BME280;47345;52.334;10.392;2023-11-18T11:32:26;101567.21;;;8.29;78.67
61478;BME280;47345;52.334;10.392;2023-11-18T11:35:02;101560.70;;;8.32;78.91
61478;BME280;47345;52.334;10.392;2023-11-18T11:37:38;101562.30;;;8.34;78.43
61478;BME280;47345;52.334;10.392;2023-11-18T11:40:13;101560.21;;;8.37;78.28
61478;BME280;47345;52.334;10.392;2023-11-18T11:42:54;101561.91;;;8.41;78.22
61478;BME280;47345;52.334;10.392;2023-11-18T11:45:25;101556.59;;;8.45;77.60
61478;BME280;47345;52.334;10.392;2023-11-18T11:48:01;101562.90;;;8.49;77.33
61478;BME280;47345;52.334;10.392;2023-11-18T11:51:02;101568.15;;;8.52;77.36
61478;BME280;47345;52.334;10.392;2023-11-18T11:53:37;101564.63;;;8.56;77.35
61478;BME280;47345;52.334;10.392;2023-11-18T11:56:15;101569.41;;;8.55;76.90
61478;BME280;47345;52.334;10.392;2023-11-18T11:58:51;101575.65;;;8.53;76.94
61478;BME280;47345;52.334;10.392;2023-11-18T12:01:32;101572.90;;;8.53;77.07
61478;BME280;47345;52.334;10.392;2023-11-18T12:04:09;101570.46;;;8.51;76.98
61478;BME280;47345;52.334;10.392;2023-11-18T12:06:54;101553.81;;;8.50;77.15
61478;BME280;47345;52.334;10.392;2023-11-18T12:09:41;101540.74;;;8.50;77.06
61478;BME280;47345;52.334;10.392;2023-11-18T12:12:20;101536.70;;;8.50;77.25
61478;BME280;47345;52.334;10.392;2023-11-18T12:14:57;101527.32;;;8.51;77.38
61478;BME280;47345;52.334;10.392;2023-11-18T12:18:12;101504.59;;;8.51;77.34
61478;BME280;47345;52.334;10.392;2023-11-18T12:20:47;101499.58;;;8.51;77.43
61478;BME280;47345;52.334;10.392;2023-11-18T12:23:18;101501.30;;;8.50;77.54
61478;BME280;47345;52.334;10.392;2023-11-18T12:25:50;101497.43;;;8.47;77.45
61478;BME280;47345;52.334;10.392;2023-11-18T12:28:28;101491.09;;;8.44;77.42
61478;BME280;47345;52.334;10.392;2023-11-18T12:31:00;101495.83;;;8.42;77.29
61478;BME280;47345;52.334;10.392;2023-11-18T12:34:02;101503.20;;;8.38;77.12
61478;BME280;47345;52.334;10.392;2023-11-18T12:37:04;101500.38;;;8.32;77.32
61478;BME280;47345;52.334;10.392;2023-11-18T12:43:01;101496.27;;;8.28;77.60
61478;BME280;47345;52.334;10.392;2023-11-18T12:45:57;101495.69;;;8.25;77.71
61478;BME280;47345;52.334;10.392;2023-11-18T12:48:38;101504.87;;;8.23;77.71
61478;BME280;47345;52.334;10.392;2023-11-18T12:51:13;101506.00;;;8.19;77.73
61478;BME280;47345;52.334;10.392;2023-11-18T12:53:52;101507.74;;;8.15;77.77
61478;BME280;47345;52.334;10.392;2023-11-18T12:56:23;101504.40;;;8.14;78.00
61478;BME280;47345;52.334;10.392;2023-11-18T12:58:58;101499.53;;;8.14;78.17
61478;BME280;47345;52.334;10.392;2023-11-18T13:01:28;101497.45;;;8.15;78.11
61478;BME280;47345;52.334;10.392;2023-11-18T13:04:03;101486.75;;;8.12;78.11
61478;BME280;47345;52.334;10.392;2023-11-18T13:06:34;101482.77;;;8.08;78.27
61478;BME280;47345;52.334;10.392;2023-11-18T13:09:05;101483.60;;;8.02;78.05
61478;BME280;47345;52.334;10.392;2023-11-18T13:11:39;101474.38;;;7.96;78.14
61478;BME280;47345;52.334;10.392;2023-11-18T13:14:12;101475.42;;;7.92;78.32
61478;BME280;47345;52.334;10.392;2023-11-18T13:16:43;101477.46;;;7.90;78.46
61478;BME280;47345;52.334;10.392;2023-11-18T13:19:24;101478.20;;;7.88;78.42
61478;BME280;47345;52.334;10.392;2023-11-18T13:21:59;101466.39;;;7.85;78.48
61478;BME280;47345;52.334;10.392;2023-11-18T13:24:29;101461.63;;;7.80;78.39
61478;BME280;47345;52.334;10.392;2023-11-18T13:27:01;101459.27;;;7.78;78.50